Time;durP1;ratioP1;P1;durP2;ratioP2;P2;SDS_P1;SDS_P2;PMS_P1;PMS_P2;Temp;Humidity;BMP_temperature;BMP_pressure;BME280_temperature;BME280_humidity;BME280_pressure;Samples;Min_cycle;Max_cycle;Signal;HPM_P1;HPM_P2
2023/02/15 00:00:21;;;;;;;47.30;32.90;;;;;;;;;;5035265;28;20379;-83
2023/02/15 00:02:47;;;;;;;52.13;31.23;;;;;;;;;;5038926;28;20429;-81
2023/02/15 00:05:13;;;;;;;42.33;30.97;;;;;;;;;;5037349;28;20383;-81
2023/02/15 00:07:39;;;;;;;38.42;28.92;;;;;;;;;;5015851;28;20391;-82
2023/02/15 00:10:06;;;;;;;34.47;27.07;;;;;;;;;;5034910;28;20391;-81
2023/02/15 00:12:32;;;;;;;36.13;28.03;;;;;;;;;;5032393;28;20927;-82
2023/02/15 00:14:58;;;;;;;36.13;27.95;;;;;;;;;;5032513;28;20494;-81
2023/02/15 00:17:24;;;;;;;35.75;27.65;;;;;;;;;;5042354;28;20964;-82
2023/02/15 00:19:50;;;;;;;33.60;26.48;;;;;;;;;;5034449;28;20863;-81
2023/02/15 00:22:16;;;;;;;34.53;26.80;;;;;;;;;;5052463;28;20453;-81
2023/02/15 00:24:42;;;;;;;32.55;25.65;;;;;;;;;;5052060;28;20420;-81
2023/02/15 00:27:08;;;;;;;32.67;25.83;;;;;;;;;;5052301;28;20450;-81
2023/02/15 00:29:34;;;;;;;33.97;26.45;;;;;;;;;;5052486;28;20385;-81
2023/02/15 00:32:00;;;;;;;34.80;26.83;;;;;;;;;;5051755;28;20893;-81
2023/02/15 00:34:27;;;;;;;31.52;25.63;;;;;;;;;;5052138;28;20405;-81
2023/02/15 00:36:53;;;;;;;33.10;26.20;;;;;;;;;;5051683;28;20409;-81
2023/02/15 00:39:20;;;;;;;29.48;24.38;;;;;;;;;;5052100;28;20417;-81
2023/02/15 00:41:46;;;;;;;30.58;25.17;;;;;;;;;;5051852;28;20370;-81
2023/02/15 00:44:13;;;;;;;31.90;25.85;;;;;;;;;;5052049;28;20490;-81
2023/02/15 00:46:39;;;;;;;31.58;25.27;;;;;;;;;;5051498;28;20435;-81
2023/02/15 00:49:05;;;;;;;34.83;25.98;;;;;;;;;;5051581;28;20382;-81
2023/02/15 00:51:31;;;;;;;35.10;25.90;;;;;;;;;;5047658;28;20402;-82
2023/02/15 00:53:57;;;;;;;35.10;26.15;;;;;;;;;;5044483;28;20400;-82
2023/02/15 00:56:23;;;;;;;37.78;26.45;;;;;;;;;;5051619;28;20409;-82
2023/02/15 00:58:50;;;;;;;42.20;27.73;;;;;;;;;;5051392;28;20374;-82
2023/02/15 01:01:17;;;;;;;48.60;29.27;;;;;;;;;;5051662;28;21095;-82
2023/02/15 01:03:44;;;;;;;43.75;28.40;;;;;;;;;;5050772;28;20421;-82
2023/02/15 01:06:11;;;;;;;40.80;26.63;;;;;;;;;;5051183;28;20464;-82
2023/02/15 01:08:37;;;;;;;47.97;29.00;;;;;;;;;;5051266;28;20393;-82
2023/02/15 01:11:07;;;;;;;56.17;30.45;;;;;;;;;;5051544;28;20383;-82
2023/02/15 01:13:33;;;;;;;52.20;29.30;;;;;;;;;;5051353;28;20882;-82
2023/02/15 01:15:59;;;;;;;56.78;29.95;;;;;;;;;;5051422;28;20768;-82
2023/02/15 01:18:26;;;;;;;58.67;30.60;;;;;;;;;;5050901;28;20464;-82
2023/02/15 01:20:52;;;;;;;53.85;30.55;;;;;;;;;;5051381;28;20426;-82
2023/02/15 01:23:18;;;;;;;55.70;29.65;;;;;;;;;;5050883;28;20474;-82
2023/02/15 01:25:44;;;;;;;56.27;29.27;;;;;;;;;;5030477;28;20423;-82
2023/02/15 01:28:10;;;;;;;59.95;31.75;;;;;;;;;;5051143;28;20388;-82
2023/02/15 01:30:36;;;;;;;59.90;30.95;;;;;;;;;;5051244;28;20382;-82
2023/02/15 01:33:02;;;;;;;59.67;31.02;;;;;;;;;;5047947;28;20373;-82
2023/02/15 01:35:29;;;;;;;60.80;31.65;;;;;;;;;;5050445;28;20439;-82
2023/02/15 01:37:55;;;;;;;56.08;30.90;;;;;;;;;;5051088;28;20471;-82
2023/02/15 01:40:22;;;;;;;65.63;33.27;;;;;;;;;;5050283;28;20387;-82
2023/02/15 01:42:51;;;;;;;66.15;32.35;;;;;;;;;;5051089;28;20439;-82
2023/02/15 01:45:21;;;;;;;64.93;31.65;;;;;;;;;;5050957;28;20374;-82
2023/02/15 01:47:53;;;;;;;62.95;32.25;;;;;;;;;;5050951;28;20386;-82
2023/02/15 01:50:21;;;;;;;57.63;30.23;;;;;;;;;;5051008;28;20374;-82
2023/02/15 01:52:58;;;;;;;61.30;32.75;;;;;;;;;;5050856;28;20747;-82
2023/02/15 01:55:25;;;;;;;60.20;31.38;;;;;;;;;;5032969;28;20398;-82
2023/02/15 01:57:51;;;;;;;56.45;30.52;;;;;;;;;;5050285;28;20405;-82
2023/02/15 02:00:18;;;;;;;56.43;31.17;;;;;;;;;;5050853;28;20374;-82
2023/02/15 02:02:45;;;;;;;64.60;34.03;;;;;;;;;;5050784;28;20388;-82
2023/02/15 02:05:11;;;;;;;60.27;33.10;;;;;;;;;;5033141;28;20458;-82
2023/02/15 02:07:39;;;;;;;66.10;33.90;;;;;;;;;;5050824;28;20998;-82
2023/02/15 02:10:07;;;;;;;60.72;32.80;;;;;;;;;;5050756;28;20392;-82
2023/02/15 02:12:33;;;;;;;62.45;33.72;;;;;;;;;;5050424;28;20371;-82
2023/02/15 02:14:59;;;;;;;58.40;32.40;;;;;;;;;;5050331;28;20379;-82
2023/02/15 02:17:25;;;;;;;60.03;32.38;;;;;;;;;;5054679;28;20459;-82
2023/02/15 02:20:00;;;;;;;59.85;31.95;;;;;;;;;;5054575;28;20901;-82
2023/02/15 02:22:29;;;;;;;52.75;31.20;;;;;;;;;;5054628;28;20385;-82
2023/02/15 02:25:14;;;;;;;55.70;32.03;;;;;;;;;;5036754;28;20385;-82
2023/02/15 02:27:43;;;;;;;52.38;30.00;;;;;;;;;;5054419;28;25107;-82
2023/02/15 02:30:21;;;;;;;54.17;30.65;;;;;;;;;;5054089;28;20400;-82
2023/02/15 02:33:06;;;;;;;52.08;30.80;;;;;;;;;;5054042;28;20382;-82
2023/02/15 02:35:50;;;;;;;56.60;31.33;;;;;;;;;;5054193;28;20420;-82
2023/02/15 02:38:36;;;;;;;51.72;29.90;;;;;;;;;;5049693;28;20778;-81
2023/02/15 02:41:16;;;;;;;53.95;30.65;;;;;;;;;;5008417;28;20375;-82
2023/02/15 02:43:49;;;;;;;50.22;30.02;;;;;;;;;;5037961;28;20379;-81
2023/02/15 02:46:24;;;;;;;53.78;30.33;;;;;;;;;;5052493;28;20385;-82
2023/02/15 02:48:51;;;;;;;48.50;29.95;;;;;;;;;;5035966;28;20868;-81
2023/02/15 02:51:22;;;;;;;50.15;30.08;;;;;;;;;;5032984;28;20374;-82
2023/02/15 02:53:52;;;;;;;47.90;29.55;;;;;;;;;;5053521;28;20771;-84
2023/02/15 02:56:23;;;;;;;48.40;29.45;;;;;;;;;;5053863;28;20398;-82
2023/02/15 02:58:52;;;;;;;52.10;30.20;;;;;;;;;;5036245;28;20477;-82
2023/02/15 03:01:18;;;;;;;50.40;29.98;;;;;;;;;;5053868;28;20424;-82
2023/02/15 03:04:04;;;;;;;52.40;29.27;;;;;;;;;;5053831;28;20413;-83
2023/02/15 03:06:35;;;;;;;51.17;29.00;;;;;;;;;;5053626;28;20389;-82
2023/02/15 03:09:03;;;;;;;46.85;29.20;;;;;;;;;;5053182;28;20389;-82
2023/02/15 03:11:30;;;;;;;52.72;28.95;;;;;;;;;;5053761;28;20927;-83
2023/02/15 03:13:57;;;;;;;47.42;28.10;;;;;;;;;;5053775;28;20421;-83
2023/02/15 03:16:26;;;;;;;52.35;28.35;;;;;;;;;;5055256;28;20459;-82
2023/02/15 03:18:56;;;;;;;49.75;27.58;;;;;;;;;;5056185;28;20410;-82
2023/02/15 03:21:26;;;;;;;50.22;28.25;;;;;;;;;;5052865;28;20726;-83
2023/02/15 03:24:04;;;;;;;54.90;28.73;;;;;;;;;;5045477;28;20909;-83
2023/02/15 03:26:30;;;;;;;50.55;27.52;;;;;;;;;;5043609;28;20470;-82
2023/02/15 03:28:57;;;;;;;45.25;26.65;;;;;;;;;;5032856;28;20916;-82
2023/02/15 03:31:25;;;;;;;46.88;26.48;;;;;;;;;;5033046;28;20445;-82
2023/02/15 03:33:58;;;;;;;47.28;26.75;;;;;;;;;;5017401;28;20895;-82
2023/02/15 03:36:42;;;;;;;44.60;26.23;;;;;;;;;;5014725;28;20405;-82
2023/02/15 03:39:47;;;;;;;45.45;26.60;;;;;;;;;;5034739;28;20752;-82
2023/02/15 03:42:17;;;;;;;48.72;25.70;;;;;;;;;;4990370;28;25122;-82
2023/02/15 03:44:55;;;;;;;48.85;26.80;;;;;;;;;;4987987;28;20392;-82
2023/02/15 03:47:25;;;;;;;49.25;26.38;;;;;;;;;;4986628;28;20394;-82
2023/02/15 03:49:54;;;;;;;43.53;25.70;;;;;;;;;;4991013;28;20423;-82
2023/02/15 03:52:21;;;;;;;46.45;25.70;;;;;;;;;;4990692;28;20410;-82
2023/02/15 03:54:48;;;;;;;45.78;25.67;;;;;;;;;;4991359;28;20482;-83
2023/02/15 04:02:58;;;;;;;44.83;25.33;;;;;;;;;;4990243;28;20855;-82
2023/02/15 04:05:24;;;;;;;44.72;25.40;;;;;;;;;;4990833;28;20418;-82
2023/02/15 04:07:50;;;;;;;46.17;26.33;;;;;;;;;;4991016;28;20971;-82
2023/02/15 04:13:00;;;;;;;49.00;27.00;;;;;;;;;;5023279;28;20909;-83
2023/02/15 04:18:11;;;;;;;46.90;26.80;;;;;;;;;;5034368;28;20529;-81
2023/02/15 04:26:06;;;;;;;45.35;26.65;;;;;;;;;;5031627;28;20402;-81
2023/02/15 04:28:32;;;;;;;43.03;25.57;;;;;;;;;;5034190;28;20476;-81
2023/02/15 04:30:58;;;;;;;46.58;26.88;;;;;;;;;;5041061;28;20388;-81
2023/02/15 04:33:24;;;;;;;45.90;25.60;;;;;;;;;;5052128;28;20386;-82
2023/02/15 04:35:50;;;;;;;46.95;25.90;;;;;;;;;;5052019;28;20488;-81
2023/02/15 04:38:16;;;;;;;44.78;26.05;;;;;;;;;;5051089;28;20453;-81
2023/02/15 04:40:42;;;;;;;45.25;25.65;;;;;;;;;;5051513;28;20803;-82
2023/02/15 04:43:08;;;;;;;45.73;26.87;;;;;;;;;;5041017;28;20387;-82
2023/02/15 04:45:34;;;;;;;47.75;26.75;;;;;;;;;;5049232;28;20847;-82
2023/02/15 04:48:00;;;;;;;48.28;26.88;;;;;;;;;;5051956;28;20484;-82
2023/02/15 04:50:26;;;;;;;44.72;26.80;;;;;;;;;;5051742;28;20384;-82
2023/02/15 04:52:52;;;;;;;50.15;28.35;;;;;;;;;;5051831;28;20396;-81
2023/02/15 04:55:18;;;;;;;44.78;26.58;;;;;;;;;;5033408;28;20381;-81
2023/02/15 04:57:44;;;;;;;48.70;27.90;;;;;;;;;;5051629;28;20835;-81
2023/02/15 05:00:11;;;;;;;44.05;26.77;;;;;;;;;;5043454;28;20853;-81
2023/02/15 05:02:37;;;;;;;47.42;27.77;;;;;;;;;;5045709;28;20742;-82
2023/02/15 05:05:03;;;;;;;50.20;27.35;;;;;;;;;;5033815;28;20922;-82
2023/02/15 05:07:29;;;;;;;52.47;28.47;;;;;;;;;;5051615;28;20463;-81
2023/02/15 05:09:55;;;;;;;48.95;28.08;;;;;;;;;;5051523;28;20855;-82
2023/02/15 05:12:21;;;;;;;57.30;28.57;;;;;;;;;;5049034;28;20447;-82
2023/02/15 05:14:47;;;;;;;60.08;28.30;;;;;;;;;;5043441;28;20424;-81
2023/02/15 05:17:13;;;;;;;50.10;28.57;;;;;;;;;;5041837;28;20418;-81
2023/02/15 05:19:39;;;;;;;48.70;27.60;;;;;;;;;;5024452;28;20890;-82
2023/02/15 05:22:05;;;;;;;48.55;27.80;;;;;;;;;;5050596;28;20404;-82
2023/02/15 05:30:00;;;;;;;53.35;28.20;;;;;;;;;;5047045;28;20394;-82
2023/02/15 05:32:26;;;;;;;53.28;29.65;;;;;;;;;;5050792;28;20385;-82
2023/02/15 05:34:52;;;;;;;57.13;29.55;;;;;;;;;;5050674;28;20393;-82
2023/02/15 05:37:18;;;;;;;56.38;29.13;;;;;;;;;;5050800;28;20425;-82
2023/02/15 05:39:44;;;;;;;54.95;29.38;;;;;;;;;;5049887;28;20386;-82
2023/02/15 05:42:10;;;;;;;59.83;30.10;;;;;;;;;;5050004;28;20435;-82
2023/02/15 05:44:36;;;;;;;52.10;28.40;;;;;;;;;;5050289;28;20401;-82
2023/02/15 05:47:02;;;;;;;54.25;29.90;;;;;;;;;;5050002;28;20792;-81
2023/02/15 05:49:30;;;;;;;54.72;29.65;;;;;;;;;;5049026;28;20377;-82
2023/02/15 05:51:56;;;;;;;53.30;29.42;;;;;;;;;;5042796;28;20399;-82
2023/02/15 05:54:22;;;;;;;51.22;30.10;;;;;;;;;;5044922;28;20401;-83
2023/02/15 05:56:48;;;;;;;57.10;30.83;;;;;;;;;;5035613;28;20414;-83
2023/02/15 05:59:14;;;;;;;61.63;31.88;;;;;;;;;;5031277;28;20387;-83
2023/02/15 06:01:40;;;;;;;56.15;30.83;;;;;;;;;;5041106;28;20384;-83
2023/02/15 06:04:06;;;;;;;57.95;32.22;;;;;;;;;;5036293;28;20376;-85
2023/02/15 06:06:32;;;;;;;57.78;31.60;;;;;;;;;;5038039;28;20873;-87
2023/02/15 06:08:58;;;;;;;63.15;33.13;;;;;;;;;;5040687;28;20389;-82
2023/02/15 06:11:24;;;;;;;58.67;33.05;;;;;;;;;;5033033;28;20378;-82
2023/02/15 06:13:50;;;;;;;59.70;33.00;;;;;;;;;;5033481;28;20389;-82
2023/02/15 06:16:16;;;;;;;55.78;32.28;;;;;;;;;;5050507;28;20483;-82
2023/02/15 06:18:42;;;;;;;59.08;32.20;;;;;;;;;;5032152;28;20912;-82
2023/02/15 06:21:08;;;;;;;64.05;33.20;;;;;;;;;;5029940;28;20668;-82
2023/02/15 06:23:34;;;;;;;67.70;33.33;;;;;;;;;;5029544;28;20405;-82
2023/02/15 06:26:00;;;;;;;60.40;32.50;;;;;;;;;;5028442;28;20375;-82
2023/02/15 06:28:26;;;;;;;63.88;32.10;;;;;;;;;;5032263;28;20760;-82
2023/02/15 06:30:52;;;;;;;58.55;32.17;;;;;;;;;;5032174;28;20455;-82
2023/02/15 06:33:18;;;;;;;64.45;32.83;;;;;;;;;;5044798;28;20389;-82
2023/02/15 06:35:46;;;;;;;56.35;30.85;;;;;;;;;;5050351;28;20381;-82
2023/02/15 06:38:12;;;;;;;61.08;32.17;;;;;;;;;;5033580;28;20415;-82
2023/02/15 06:40:38;;;;;;;59.78;32.15;;;;;;;;;;5042829;28;20950;-83
2023/02/15 06:43:04;;;;;;;61.07;32.13;;;;;;;;;;5041441;28;20381;-82
2023/02/15 06:45:30;;;;;;;56.55;31.83;;;;;;;;;;5036331;28;20767;-81
2023/02/15 06:47:56;;;;;;;60.40;33.00;;;;;;;;;;5035956;28;20395;-83
2023/02/15 06:50:22;;;;;;;62.38;32.70;;;;;;;;;;5037717;28;20397;-82
2023/02/15 06:52:48;;;;;;;62.40;33.77;;;;;;;;;;5021924;28;21257;-81
2023/02/15 06:55:14;;;;;;;67.25;33.83;;;;;;;;;;5050806;28;20413;-81
2023/02/15 06:57:40;;;;;;;60.87;33.83;;;;;;;;;;5050175;28;20748;-82
2023/02/15 07:00:06;;;;;;;59.22;32.80;;;;;;;;;;5049872;28;20377;-81
2023/02/15 07:02:33;;;;;;;65.20;34.85;;;;;;;;;;5041776;28;20387;-82
2023/02/15 07:04:59;;;;;;;62.22;33.75;;;;;;;;;;5040066;28;20401;-82
2023/02/15 07:07:25;;;;;;;66.47;34.13;;;;;;;;;;5037031;28;20450;-82
2023/02/15 07:09:51;;;;;;;62.90;34.72;;;;;;;;;;5039939;28;20389;-82
2023/02/15 07:15:05;;;;;;;79.20;41.00;;;;;;;;;;5051852;28;20381;-81
2023/02/15 07:17:31;;;;;;;75.70;39.20;;;;;;;;;;5053487;28;20455;-81
2023/02/15 07:19:57;;;;;;;75.13;39.40;;;;;;;;;;5052553;28;21031;-81
2023/02/15 07:22:23;;;;;;;71.50;35.65;;;;;;;;;;5052594;28;20389;-81
2023/02/15 07:24:49;;;;;;;68.00;35.73;;;;;;;;;;5035486;28;20389;-82
2023/02/15 07:27:15;;;;;;;70.13;35.88;;;;;;;;;;5053690;28;20401;-81
2023/02/15 07:29:41;;;;;;;70.45;36.97;;;;;;;;;;5051733;28;20494;-81
2023/02/15 07:32:07;;;;;;;76.03;37.75;;;;;;;;;;5053376;28;20804;-81
2023/02/15 07:34:33;;;;;;;72.32;37.63;;;;;;;;;;5053474;28;20435;-81
2023/02/15 07:36:59;;;;;;;73.18;36.72;;;;;;;;;;5052811;28;20487;-82
2023/02/15 07:39:25;;;;;;;67.05;34.60;;;;;;;;;;5053601;28;20378;-81
2023/02/15 07:41:51;;;;;;;67.40;35.33;;;;;;;;;;5053371;28;20373;-81
2023/02/15 07:44:17;;;;;;;69.65;36.13;;;;;;;;;;5028491;28;20889;-82
2023/02/15 07:46:43;;;;;;;74.43;36.45;;;;;;;;;;5053208;28;20747;-82
2023/02/15 07:49:09;;;;;;;75.32;38.17;;;;;;;;;;5039997;28;20392;-83
2023/02/15 07:51:35;;;;;;;80.32;39.33;;;;;;;;;;5053196;28;20386;-82
2023/02/15 07:54:01;;;;;;;75.80;37.58;;;;;;;;;;5052652;28;20412;-82
2023/02/15 07:56:27;;;;;;;80.13;39.75;;;;;;;;;;5028399;28;20407;-82
2023/02/15 07:58:55;;;;;;;79.50;38.90;;;;;;;;;;5056847;28;20379;-82
2023/02/15 08:01:32;;;;;;;81.53;38.92;;;;;;;;;;5050491;28;20385;-82
2023/02/15 08:03:58;;;;;;;74.38;37.60;;;;;;;;;;5052830;28;20377;-82
2023/02/15 08:06:26;;;;;;;74.57;37.78;;;;;;;;;;5052885;28;20381;-82
2023/02/15 08:08:52;;;;;;;71.82;36.75;;;;;;;;;;5052290;28;20392;-80
2023/02/15 08:11:25;;;;;;;66.47;34.83;;;;;;;;;;5052625;28;20400;-80
2023/02/15 08:13:56;;;;;;;70.25;35.53;;;;;;;;;;5051818;28;20451;-80
2023/02/15 08:16:39;;;;;;;67.40;35.15;;;;;;;;;;5052117;28;21842;-80
2023/02/15 08:19:09;;;;;;;67.57;34.47;;;;;;;;;;5052566;28;20377;-80
2023/02/15 08:21:37;;;;;;;64.80;33.50;;;;;;;;;;5052375;28;20461;-80
2023/02/15 08:24:03;;;;;;;66.95;34.65;;;;;;;;;;5042449;28;20378;-80
2023/02/15 08:26:30;;;;;;;71.55;37.53;;;;;;;;;;5052077;28;20790;-80
2023/02/15 08:28:56;;;;;;;76.80;37.90;;;;;;;;;;5052376;28;20417;-81
2023/02/15 08:31:23;;;;;;;78.32;38.03;;;;;;;;;;5051965;28;20381;-80
2023/02/15 08:33:50;;;;;;;79.68;38.50;;;;;;;;;;5052112;28;20424;-82
2023/02/15 08:36:18;;;;;;;76.68;38.10;;;;;;;;;;5052160;28;20417;-81
2023/02/15 08:38:44;;;;;;;75.95;39.20;;;;;;;;;;5052144;28;20400;-81
2023/02/15 08:41:14;;;;;;;82.68;40.03;;;;;;;;;;5050655;28;20480;-80
2023/02/15 08:43:41;;;;;;;76.60;38.70;;;;;;;;;;5046567;28;20743;-80
2023/02/15 08:46:08;;;;;;;76.25;38.90;;;;;;;;;;5051996;28;20774;-80
2023/02/15 08:48:34;;;;;;;73.47;37.85;;;;;;;;;;5042045;28;20407;-80
2023/02/15 08:51:05;;;;;;;78.25;40.13;;;;;;;;;;5048153;28;20720;-80
2023/02/15 08:53:31;;;;;;;77.95;39.35;;;;;;;;;;5051878;28;20378;-80
2023/02/15 08:55:57;;;;;;;81.03;40.80;;;;;;;;;;5051647;28;20431;-81
2023/02/15 08:58:23;;;;;;;79.82;41.88;;;;;;;;;;5033702;28;20755;-80
2023/02/15 09:00:49;;;;;;;86.50;42.00;;;;;;;;;;5033572;28;20421;-80
2023/02/15 09:03:15;;;;;;;82.57;41.75;;;;;;;;;;5051580;28;20388;-80
2023/02/15 09:05:41;;;;;;;95.83;45.40;;;;;;;;;;5051365;28;20434;-80
2023/02/15 09:08:08;;;;;;;91.80;45.97;;;;;;;;;;5051503;28;20540;-80
2023/02/15 09:10:33;;;;;;;92.13;44.83;;;;;;;;;;5048486;28;20965;-80
2023/02/15 09:13:00;;;;;;;91.20;44.10;;;;;;;;;;5051465;28;20394;-80
2023/02/15 09:15:26;;;;;;;98.70;47.20;;;;;;;;;;5051417;28;20410;-80
2023/02/15 09:17:52;;;;;;;101.85;51.50;;;;;;;;;;5050984;28;20543;-80
2023/02/15 09:20:17;;;;;;;92.03;44.03;;;;;;;;;;5049680;28;20470;-80
2023/02/15 09:22:43;;;;;;;87.05;44.95;;;;;;;;;;5043804;28;20789;-79
2023/02/15 09:25:10;;;;;;;88.40;44.47;;;;;;;;;;5050557;28;20389;-80
2023/02/15 09:27:36;;;;;;;88.30;44.67;;;;;;;;;;5051366;28;20381;-80
2023/02/15 09:30:03;;;;;;;86.80;44.53;;;;;;;;;;5051270;28;20393;-80
2023/02/15 09:32:29;;;;;;;86.88;43.38;;;;;;;;;;5051164;28;20413;-80
2023/02/15 09:34:55;;;;;;;85.18;44.53;;;;;;;;;;5032696;28;20659;-80
2023/02/15 09:37:21;;;;;;;84.88;43.17;;;;;;;;;;5050544;28;20918;-80
2023/02/15 09:39:47;;;;;;;91.43;45.95;;;;;;;;;;5051269;28;20922;-80
2023/02/15 09:42:32;;;;;;;93.60;48.70;;;;;;;;;;5032836;28;20875;-80
2023/02/15 09:45:03;;;;;;;92.25;46.72;;;;;;;;;;5051041;28;20389;-80
2023/02/15 09:47:41;;;;;;;91.13;46.38;;;;;;;;;;5050960;28;20899;-80
2023/02/15 09:50:10;;;;;;;92.97;47.63;;;;;;;;;;5051004;28;20400;-80
2023/02/15 09:52:42;;;;;;;101.50;49.03;;;;;;;;;;5051050;28;20392;-80
2023/02/15 09:55:15;;;;;;;94.68;49.05;;;;;;;;;;5050613;28;20464;-80
2023/02/15 09:58:00;;;;;;;88.17;46.27;;;;;;;;;;5050594;28;20405;-80
2023/02/15 10:00:32;;;;;;;89.40;46.60;;;;;;;;;;5050794;28;20363;-80
2023/02/15 10:03:17;;;;;;;86.20;45.30;;;;;;;;;;5050929;28;20405;-80
2023/02/15 10:05:48;;;;;;;86.13;44.88;;;;;;;;;;5050901;28;20387;-80
2023/02/15 10:08:30;;;;;;;92.13;45.65;;;;;;;;;;5050879;28;20373;-79
2023/02/15 10:10:56;;;;;;;93.28;48.15;;;;;;;;;;5050736;28;20371;-80
2023/02/15 10:13:48;;;;;;;86.97;45.88;;;;;;;;;;5051559;28;20450;-79
2023/02/15 10:16:22;;;;;;;100.70;49.88;;;;;;;;;;5047526;28;20389;-78
2023/02/15 10:18:48;;;;;;;125.25;51.60;;;;;;;;;;5051119;28;25111;-79
2023/02/15 10:21:39;;;;;;;92.70;47.42;;;;;;;;;;5051643;28;20377;-80
2023/02/15 10:24:14;;;;;;;90.25;48.25;;;;;;;;;;5051340;28;20373;-80
2023/02/15 10:26:47;;;;;;;95.22;48.50;;;;;;;;;;5050901;28;20412;-80
2023/02/15 10:29:20;;;;;;;94.28;48.67;;;;;;;;;;5050552;28;20473;-80
2023/02/15 10:31:46;;;;;;;102.00;50.33;;;;;;;;;;5051004;28;20398;-80
2023/02/15 10:34:15;;;;;;;105.70;52.60;;;;;;;;;;5050738;28;20384;-80
2023/02/15 10:36:53;;;;;;;107.75;53.78;;;;;;;;;;5051729;28;20449;-80
2023/02/15 10:39:31;;;;;;;107.63;52.87;;;;;;;;;;5054551;28;20484;-80
2023/02/15 10:42:00;;;;;;;104.20;52.17;;;;;;;;;;5054359;28;20375;-80
2023/02/15 10:44:35;;;;;;;105.60;51.33;;;;;;;;;;5036288;28;20860;-80
2023/02/15 10:47:23;;;;;;;116.57;56.63;;;;;;;;;;5051686;28;20413;-80
2023/02/15 10:50:08;;;;;;;117.82;57.03;;;;;;;;;;5041112;28;20399;-80
2023/02/15 10:52:55;;;;;;;108.53;55.33;;;;;;;;;;5036120;28;20901;-80
2023/02/15 10:55:40;;;;;;;103.32;53.17;;;;;;;;;;5054825;28;20489;-80
2023/02/15 10:58:10;;;;;;;111.15;56.42;;;;;;;;;;5056316;28;20406;-80
2023/02/15 11:00:42;;;;;;;127.30;60.30;;;;;;;;;;5054878;28;20380;-80
2023/02/15 11:03:17;;;;;;;120.22;60.03;;;;;;;;;;5055118;28;20882;-80
2023/02/15 11:06:01;;;;;;;131.80;64.97;;;;;;;;;;5053613;28;20465;-80
2023/02/15 11:08:30;;;;;;;139.88;69.43;;;;;;;;;;5054017;28;20370;-79
2023/02/15 11:11:00;;;;;;;137.07;66.37;;;;;;;;;;5051533;28;20409;-80
2023/02/15 11:13:28;;;;;;;142.25;69.45;;;;;;;;;;5045879;28;20383;-80
2023/02/15 11:15:57;;;;;;;144.07;72.35;;;;;;;;;;5053795;28;20421;-80
2023/02/15 11:18:40;;;;;;;139.43;71.55;;;;;;;;;;5053580;28;20420;-80
2023/02/15 11:21:36;;;;;;;150.00;72.40;;;;;;;;;;5036047;28;20938;-80
2023/02/15 11:24:09;;;;;;;158.50;74.22;;;;;;;;;;5050812;28;25086;-80
2023/02/15 11:26:46;;;;;;;171.70;81.35;;;;;;;;;;5053084;28;25086;-79
2023/02/15 11:29:31;;;;;;;168.43;79.97;;;;;;;;;;5053612;28;20397;-79
2023/02/15 11:31:58;;;;;;;152.25;74.65;;;;;;;;;;5052937;28;25106;-80
2023/02/15 11:34:36;;;;;;;138.05;68.15;;;;;;;;;;5053244;28;20385;-80
2023/02/15 11:37:05;;;;;;;136.40;66.38;;;;;;;;;;5052931;28;25175;-80
2023/02/15 11:39:32;;;;;;;137.53;68.97;;;;;;;;;;5034951;28;20979;-80
2023/02/15 11:42:02;;;;;;;130.27;66.80;;;;;;;;;;5052741;28;20852;-80
2023/02/15 11:44:47;;;;;;;134.73;67.70;;;;;;;;;;5053234;28;20504;-80
2023/02/15 11:47:14;;;;;;;131.93;66.47;;;;;;;;;;5053004;28;25112;-79
2023/02/15 11:49:40;;;;;;;118.68;63.83;;;;;;;;;;5052267;28;20746;-80
2023/02/15 11:52:07;;;;;;;107.63;58.95;;;;;;;;;;5052957;28;20387;-80
2023/02/15 11:54:36;;;;;;;117.45;63.83;;;;;;;;;;5052922;28;20441;-80
2023/02/15 11:57:12;;;;;;;113.15;60.05;;;;;;;;;;5052734;28;20523;-79
2023/02/15 11:59:39;;;;;;;108.70;59.13;;;;;;;;;;5052643;28;20411;-80
2023/02/15 12:02:15;;;;;;;109.63;56.80;;;;;;;;;;5035059;28;20418;-80
2023/02/15 12:04:44;;;;;;;126.85;64.47;;;;;;;;;;5052805;28;25125;-80
2023/02/15 12:07:15;;;;;;;126.93;68.18;;;;;;;;;;5052549;28;20373;-80
2023/02/15 12:09:47;;;;;;;157.27;81.60;;;;;;;;;;5052683;28;20375;-80
2023/02/15 12:12:22;;;;;;;116.85;65.53;;;;;;;;;;5052830;28;20397;-80
2023/02/15 12:14:53;;;;;;;139.98;74.18;;;;;;;;;;5051954;28;25108;-80
2023/02/15 12:17:22;;;;;;;119.78;65.88;;;;;;;;;;5052565;28;20418;-80
2023/02/15 12:19:52;;;;;;;106.87;59.90;;;;;;;;;;5052411;28;20385;-80
2023/02/15 12:22:38;;;;;;;109.60;60.58;;;;;;;;;;5052517;28;20508;-80
2023/02/15 12:25:23;;;;;;;95.32;56.67;;;;;;;;;;5051910;28;20398;-80
2023/02/15 12:27:50;;;;;;;87.50;53.90;;;;;;;;;;5052441;28;20379;-81
2023/02/15 12:30:16;;;;;;;98.50;56.58;;;;;;;;;;5052338;28;20405;-80
2023/02/15 12:32:48;;;;;;;91.90;56.30;;;;;;;;;;5051929;28;20453;-80
2023/02/15 12:35:15;;;;;;;88.68;54.38;;;;;;;;;;5052179;28;20410;-81
2023/02/15 12:37:52;;;;;;;81.28;53.05;;;;;;;;;;5052040;28;20407;-81
2023/02/15 12:40:20;;;;;;;78.22;51.08;;;;;;;;;;5051977;28;25121;-80
2023/02/15 12:42:46;;;;;;;80.63;52.35;;;;;;;;;;5033963;28;20959;-80
2023/02/15 12:45:26;;;;;;;82.47;53.60;;;;;;;;;;5051922;28;20477;-80
2023/02/15 12:48:11;;;;;;;77.03;50.17;;;;;;;;;;5051700;28;25097;-80
2023/02/15 12:50:38;;;;;;;83.82;50.35;;;;;;;;;;5051850;28;20427;-79
2023/02/15 12:53:08;;;;;;;79.80;50.67;;;;;;;;;;5051932;28;20379;-80
2023/02/15 12:55:34;;;;;;;72.15;48.45;;;;;;;;;;5051552;28;20413;-79
2023/02/15 12:58:07;;;;;;;74.60;48.05;;;;;;;;;;5051661;28;20906;-80
2023/02/15 13:00:34;;;;;;;72.30;46.60;;;;;;;;;;5050554;28;20407;-80
2023/02/15 13:03:00;;;;;;;72.68;48.25;;;;;;;;;;5051786;28;20405;-80
2023/02/15 13:05:32;;;;;;;68.20;48.85;;;;;;;;;;5051658;28;20370;-79
2023/02/15 13:08:00;;;;;;;73.23;48.63;;;;;;;;;;5051116;28;20396;-80
2023/02/15 13:10:31;;;;;;;62.95;46.03;;;;;;;;;;5051616;28;20482;-80
2023/02/15 13:12:58;;;;;;;72.22;49.28;;;;;;;;;;5051570;28;20390;-80
2023/02/15 13:15:38;;;;;;;75.97;51.10;;;;;;;;;;5049177;28;20379;-80
2023/02/15 13:18:06;;;;;;;75.88;51.45;;;;;;;;;;5050814;28;25158;-80
2023/02/15 13:20:32;;;;;;;70.97;48.03;;;;;;;;;;5049128;28;20367;-80
2023/02/15 13:23:09;;;;;;;71.95;49.17;;;;;;;;;;5044945;28;20374;-80
2023/02/15 13:25:50;;;;;;;75.20;47.05;;;;;;;;;;5051146;28;20726;-80
2023/02/15 13:28:17;;;;;;;77.30;47.57;;;;;;;;;;5051368;28;20441;-80
2023/02/15 13:30:45;;;;;;;70.88;46.95;;;;;;;;;;5051355;28;20396;-80
2023/02/15 13:33:17;;;;;;;65.00;45.50;;;;;;;;;;5050659;28;20389;-80
2023/02/15 13:36:07;;;;;;;66.38;44.45;;;;;;;;;;5050914;28;20519;-80
2023/02/15 13:38:39;;;;;;;63.13;44.58;;;;;;;;;;5051276;28;20432;-80
2023/02/15 13:41:09;;;;;;;62.17;42.53;;;;;;;;;;5066547;22;20392;-86
2023/02/15 13:43:44;;;;;;;65.22;43.20;;;;;;;;;;5067477;28;20476;-86
2023/02/15 13:46:24;;;;;;;60.13;41.00;;;;;;;;;;5053120;28;20945;-86
2023/02/15 13:49:09;;;;;;;58.75;40.00;;;;;;;;;;5070991;28;20407;-86
2023/02/15 13:51:41;;;;;;;65.47;43.25;;;;;;;;;;5070802;28;25108;-86
2023/02/15 13:54:26;;;;;;;69.20;44.92;;;;;;;;;;5052570;28;20491;-87
2023/02/15 13:57:17;;;;;;;62.10;43.30;;;;;;;;;;5070824;28;25099;-86
2023/02/15 13:59:44;;;;;;;69.77;46.10;;;;;;;;;;5060129;28;25195;-85
2023/02/15 14:02:29;;;;;;;69.90;46.22;;;;;;;;;;5052379;28;20428;-86
2023/02/15 14:05:13;;;;;;;65.78;45.13;;;;;;;;;;5070830;28;25107;-86
2023/02/15 14:07:45;;;;;;;72.93;48.08;;;;;;;;;;5070703;28;25118;-87
2023/02/15 14:10:20;;;;;;;73.22;47.08;;;;;;;;;;5070962;28;20399;-86
2023/02/15 14:12:55;;;;;;;68.88;46.72;;;;;;;;;;5073830;28;20413;-87
2023/02/15 14:15:45;;;;;;;59.35;40.95;;;;;;;;;;5075007;28;25102;-86
2023/02/15 14:18:15;;;;;;;60.70;42.07;;;;;;;;;;5047807;28;25105;-87
2023/02/15 14:20:44;;;;;;;64.70;42.35;;;;;;;;;;5074571;28;20385;-87
2023/02/15 14:23:29;;;;;;;58.15;40.72;;;;;;;;;;5074723;28;20917;-86
2023/02/15 14:26:04;;;;;;;63.08;42.03;;;;;;;;;;5074695;28;20443;-86
2023/02/15 14:28:48;;;;;;;60.70;41.63;;;;;;;;;;5074445;28;25105;-86
2023/02/15 14:31:16;;;;;;;61.35;42.47;;;;;;;;;;5074185;28;20841;-86
2023/02/15 14:33:47;;;;;;;60.20;41.50;;;;;;;;;;5074544;28;20429;-87
2023/02/15 14:36:18;;;;;;;54.75;38.42;;;;;;;;;;5074381;28;20388;-87
2023/02/15 14:39:03;;;;;;;52.97;37.30;;;;;;;;;;5074076;28;20455;-86
2023/02/15 14:41:38;;;;;;;58.75;40.25;;;;;;;;;;5055944;28;20410;-84
2023/02/15 14:44:14;;;;;;;60.42;42.05;;;;;;;;;;5074321;28;20413;-86
2023/02/15 14:46:47;;;;;;;58.00;40.58;;;;;;;;;;5071475;28;20385;-86
2023/02/15 14:49:15;;;;;;;61.10;41.75;;;;;;;;;;5073864;28;20916;-86
2023/02/15 14:51:45;;;;;;;61.90;43.17;;;;;;;;;;5074049;28;20395;-86
2023/02/15 14:54:34;;;;;;;65.30;45.17;;;;;;;;;;5056296;28;20723;-87
2023/02/15 14:57:03;;;;;;;65.43;44.80;;;;;;;;;;5073776;28;20411;-86